Terminal Aerodrome Forecast
Issued by NWS Houston/Galveston, TX

Home | Current Version | Previous Version | Text Only | Print | Product List | Glossary On
Versions: 1 2 3 4 5 6 7 8 9 10 11 12 13 14
000
FTUS44 KHGX 191125
TAFGLS
TAF
KGLS 191125Z 1912/2012 16009KT P6SM VCSH SCT012
     FM191500 16010KT P6SM SCT020
     FM200900 17008KT P6SM VCSH SCT015=

USA.gov is the U.S. government's official web portal to all federal, state and local government web resources and services.